sensor_id;sensor_type;location;lat;lon;timestamp;pressure;altitude;pressure_sealevel;temperature
51149;BMP280;37210;50.058;8.688;2023-02-15T00:00:11;101814.06;;;4.53
51149;BMP280;37210;50.058;8.688;2023-02-15T00:02:39;101814.38;;;4.08
51149;BMP280;37210;50.058;8.688;2023-02-15T00:05:07;101816.56;;;4.34
51149;BMP280;37210;50.058;8.688;2023-02-15T00:07:34;101806.25;;;4.18
51149;BMP280;37210;50.058;8.688;2023-02-15T00:10:02;101806.03;;;4.14
51149;BMP280;37210;50.058;8.688;2023-02-15T00:12:30;101798.03;;;4.09
51149;BMP280;37210;50.058;8.688;2023-02-15T00:14:59;101776.50;;;4.10
51149;BMP280;37210;50.058;8.688;2023-02-15T00:17:27;101621.16;;;2.75
51149;BMP280;37210;50.058;8.688;2023-02-15T00:19:55;101788.31;;;4.21
51149;BMP280;37210;50.058;8.688;2023-02-15T00:22:23;101791.97;;;4.09
51149;BMP280;37210;50.058;8.688;2023-02-15T00:24:50;101758.31;;;3.43
51149;BMP280;37210;50.058;8.688;2023-02-15T00:27:17;101789.69;;;3.65
51149;BMP280;37210;50.058;8.688;2023-02-15T00:29:46;101793.09;;;3.32
51149;BMP280;37210;50.058;8.688;2023-02-15T00:32:15;101788.38;;;3.57
51149;BMP280;37210;50.058;8.688;2023-02-15T00:34:42;101793.22;;;3.83
51149;BMP280;37210;50.058;8.688;2023-02-15T00:37:10;101749.94;;;3.80
51149;BMP280;37210;50.058;8.688;2023-02-15T00:39:38;101795.28;;;3.56
51149;BMP280;37210;50.058;8.688;2023-02-15T00:42:05;101791.56;;;4.01
51149;BMP280;37210;50.058;8.688;2023-02-15T00:44:33;101766.78;;;3.72
51149;BMP280;37210;50.058;8.688;2023-02-15T00:47:00;101773.31;;;3.82
51149;BMP280;37210;50.058;8.688;2023-02-15T00:49:29;101717.50;;;3.37
51149;BMP280;37210;50.058;8.688;2023-02-15T00:51:57;101748.06;;;3.60
51149;BMP280;37210;50.058;8.688;2023-02-15T00:54:25;101784.13;;;3.73
51149;BMP280;37210;50.058;8.688;2023-02-15T00:56:53;101788.25;;;3.54
51149;BMP280;37210;50.058;8.688;2023-02-15T00:59:20;101750.47;;;3.73
51149;BMP280;37210;50.058;8.688;2023-02-15T01:01:49;101723.69;;;3.73
51149;BMP280;37210;50.058;8.688;2023-02-15T01:04:18;101768.44;;;4.04
51149;BMP280;37210;50.058;8.688;2023-02-15T01:06:47;101769.03;;;4.16
51149;BMP280;37210;50.058;8.688;2023-02-15T01:09:15;101763.19;;;4.20
51149;BMP280;37210;50.058;8.688;2023-02-15T01:11:42;101766.69;;;4.21
51149;BMP280;37210;50.058;8.688;2023-02-15T01:14:10;101574.91;;;3.13
51149;BMP280;37210;50.058;8.688;2023-02-15T01:16:39;101761.75;;;4.25
51149;BMP280;37210;50.058;8.688;2023-02-15T01:19:06;101706.31;;;3.04
51149;BMP280;37210;50.058;8.688;2023-02-15T01:21:34;101718.88;;;3.47
51149;BMP280;37210;50.058;8.688;2023-02-15T01:24:04;101770.28;;;3.41
51149;BMP280;37210;50.058;8.688;2023-02-15T01:26:31;101756.78;;;3.62
51149;BMP280;37210;50.058;8.688;2023-02-15T01:28:59;101767.38;;;3.35
51149;BMP280;37210;50.058;8.688;2023-02-15T01:31:27;101717.34;;;3.50
51149;BMP280;37210;50.058;8.688;2023-02-15T01:33:54;101540.81;;;2.38
51149;BMP280;37210;50.058;8.688;2023-02-15T01:36:22;101753.47;;;3.49
51149;BMP280;37210;50.058;8.688;2023-02-15T01:38:51;101753.06;;;3.73
51149;BMP280;37210;50.058;8.688;2023-02-15T01:41:20;101761.13;;;2.99
51149;BMP280;37210;50.058;8.688;2023-02-15T01:43:50;101756.00;;;3.15
51149;BMP280;37210;50.058;8.688;2023-02-15T01:46:23;101718.25;;;3.02
51149;BMP280;37210;50.058;8.688;2023-02-15T01:49:00;101681.81;;;2.98
51149;BMP280;37210;50.058;8.688;2023-02-15T01:51:33;101747.91;;;3.41
51149;BMP280;37210;50.058;8.688;2023-02-15T01:54:09;101691.16;;;2.80
51149;BMP280;37210;50.058;8.688;2023-02-15T01:56:46;101727.94;;;3.39
51149;BMP280;37210;50.058;8.688;2023-02-15T01:59:19;101726.03;;;3.68
51149;BMP280;37210;50.058;8.688;2023-02-15T02:01:51;101694.97;;;3.18
51149;BMP280;37210;50.058;8.688;2023-02-15T02:04:26;101479.72;;;1.91
51149;BMP280;37210;50.058;8.688;2023-02-15T02:07:02;101658.66;;;2.53
51149;BMP280;37210;50.058;8.688;2023-02-15T02:09:32;101738.28;;;3.22
51149;BMP280;37210;50.058;8.688;2023-02-15T02:12:01;101707.34;;;3.24
51149;BMP280;37210;50.058;8.688;2023-02-15T02:14:29;101743.16;;;3.82
51149;BMP280;37210;50.058;8.688;2023-02-15T02:17:05;101512.66;;;2.75
51149;BMP280;37210;50.058;8.688;2023-02-15T02:20:15;101705.63;;;3.41
51149;BMP280;37210;50.058;8.688;2023-02-15T02:23:07;101707.09;;;3.69
51149;BMP280;37210;50.058;8.688;2023-02-15T02:30:09;101723.72;;;3.90
51149;BMP280;37210;50.058;8.688;2023-02-15T02:33:27;101718.88;;;4.14
51149;BMP280;37210;50.058;8.688;2023-02-15T02:36:14;101665.56;;;3.84
51149;BMP280;37210;50.058;8.688;2023-02-15T02:38:57;101722.44;;;4.16
51149;BMP280;37210;50.058;8.688;2023-02-15T02:41:40;101705.59;;;3.90
51149;BMP280;37210;50.058;8.688;2023-02-15T02:44:22;101715.13;;;4.25
51149;BMP280;37210;50.058;8.688;2023-02-15T02:46:57;101720.88;;;4.02
51149;BMP280;37210;50.058;8.688;2023-02-15T02:49:34;101712.50;;;4.07
51149;BMP280;37210;50.058;8.688;2023-02-15T02:52:04;101683.56;;;3.81
51149;BMP280;37210;50.058;8.688;2023-02-15T02:57:59;101709.16;;;3.92
51149;BMP280;37210;50.058;8.688;2023-02-15T03:00:34;101707.63;;;3.62
51149;BMP280;37210;50.058;8.688;2023-02-15T03:03:09;101653.13;;;3.09
51149;BMP280;37210;50.058;8.688;2023-02-15T03:05:45;101701.75;;;3.82
51149;BMP280;37210;50.058;8.688;2023-02-15T03:08:17;101700.66;;;3.95
51149;BMP280;37210;50.058;8.688;2023-02-15T03:10:51;101591.03;;;3.59
51149;BMP280;37210;50.058;8.688;2023-02-15T03:13:23;101633.84;;;3.37
51149;BMP280;37210;50.058;8.688;2023-02-15T03:15:51;101693.59;;;3.75
51149;BMP280;37210;50.058;8.688;2023-02-15T03:18:40;101669.34;;;3.90
51149;BMP280;37210;50.058;8.688;2023-02-15T03:21:12;101683.88;;;4.22
51149;BMP280;37210;50.058;8.688;2023-02-15T03:23:51;101626.75;;;3.84
51149;BMP280;37210;50.058;8.688;2023-02-15T03:26:27;101642.47;;;4.04
51149;BMP280;37210;50.058;8.688;2023-02-15T03:28:58;101686.84;;;4.12
51149;BMP280;37210;50.058;8.688;2023-02-15T03:31:32;101686.91;;;3.96
51149;BMP280;37210;50.058;8.688;2023-02-15T03:34:06;101685.56;;;4.22
51149;BMP280;37210;50.058;8.688;2023-02-15T03:36:44;101685.56;;;4.22
51149;BMP280;37210;50.058;8.688;2023-02-15T03:39:19;101688.97;;;4.21
51149;BMP280;37210;50.058;8.688;2023-02-15T03:41:55;101679.78;;;4.10
51149;BMP280;37210;50.058;8.688;2023-02-15T03:44:29;101689.72;;;4.18
51149;BMP280;37210;50.058;8.688;2023-02-15T03:47:04;101680.59;;;3.91
51149;BMP280;37210;50.058;8.688;2023-02-15T03:49:40;101517.13;;;3.13
51149;BMP280;37210;50.058;8.688;2023-02-15T03:52:14;101682.84;;;4.19
51149;BMP280;37210;50.058;8.688;2023-02-15T03:54:44;101674.91;;;4.33
51149;BMP280;37210;50.058;8.688;2023-02-15T03:57:16;101681.50;;;4.44
51149;BMP280;37210;50.058;8.688;2023-02-15T04:00:17;101633.34;;;3.95
51149;BMP280;37210;50.058;8.688;2023-02-15T04:03:12;101643.31;;;4.05
51149;BMP280;37210;50.058;8.688;2023-02-15T04:05:49;101667.44;;;3.86
51149;BMP280;37210;50.058;8.688;2023-02-15T04:08:18;101666.56;;;4.03
51149;BMP280;37210;50.058;8.688;2023-02-15T04:10:46;101689.50;;;3.96
51149;BMP280;37210;50.058;8.688;2023-02-15T04:13:19;101685.44;;;4.19
51149;BMP280;37210;50.058;8.688;2023-02-15T04:15:46;101644.66;;;3.97
51149;BMP280;37210;50.058;8.688;2023-02-15T04:18:32;101673.00;;;4.29
51149;BMP280;37210;50.058;8.688;2023-02-15T04:21:20;101677.78;;;3.86
51149;BMP280;37210;50.058;8.688;2023-02-15T04:24:08;101678.44;;;3.49
51149;BMP280;37210;50.058;8.688;2023-02-15T04:26:54;101675.72;;;3.46
51149;BMP280;37210;50.058;8.688;2023-02-15T04:29:24;101668.75;;;3.61
51149;BMP280;37210;50.058;8.688;2023-02-15T04:31:53;101667.66;;;3.73
51149;BMP280;37210;50.058;8.688;2023-02-15T04:34:23;101640.03;;;3.56
51149;BMP280;37210;50.058;8.688;2023-02-15T04:36:51;101666.16;;;3.61
51149;BMP280;37210;50.058;8.688;2023-02-15T04:39:20;101489.03;;;2.85
51149;BMP280;37210;50.058;8.688;2023-02-15T04:41:48;101666.25;;;3.97
51149;BMP280;37210;50.058;8.688;2023-02-15T04:44:16;101620.44;;;3.28
51149;BMP280;37210;50.058;8.688;2023-02-15T04:46:43;101617.84;;;3.28
51149;BMP280;37210;50.058;8.688;2023-02-15T04:49:11;101614.25;;;3.58
51149;BMP280;37210;50.058;8.688;2023-02-15T04:51:39;101667.28;;;4.01
51149;BMP280;37210;50.058;8.688;2023-02-15T04:54:06;101653.97;;;4.11
51149;BMP280;37210;50.058;8.688;2023-02-15T04:56:35;101534.41;;;3.48
51149;BMP280;37210;50.058;8.688;2023-02-15T04:59:05;101642.06;;;4.15
51149;BMP280;37210;50.058;8.688;2023-02-15T05:01:32;101659.09;;;4.27
51149;BMP280;37210;50.058;8.688;2023-02-15T05:04:00;101650.41;;;4.09
51149;BMP280;37210;50.058;8.688;2023-02-15T05:06:28;101656.03;;;3.83
51149;BMP280;37210;50.058;8.688;2023-02-15T05:08:56;101664.78;;;3.85
51149;BMP280;37210;50.058;8.688;2023-02-15T05:11:25;101632.84;;;4.02
51149;BMP280;37210;50.058;8.688;2023-02-15T05:13:54;101673.00;;;4.29
51149;BMP280;37210;50.058;8.688;2023-02-15T05:16:21;101662.34;;;4.23
51149;BMP280;37210;50.058;8.688;2023-02-15T05:18:49;101642.97;;;4.15
51149;BMP280;37210;50.058;8.688;2023-02-15T05:21:16;101655.94;;;4.34
51149;BMP280;37210;50.058;8.688;2023-02-15T05:23:44;101620.59;;;3.82
51149;BMP280;37210;50.058;8.688;2023-02-15T05:26:16;101552.38;;;3.62
51149;BMP280;37210;50.058;8.688;2023-02-15T05:29:04;101651.31;;;4.27
51149;BMP280;37210;50.058;8.688;2023-02-15T05:31:32;101624.34;;;4.24
51149;BMP280;37210;50.058;8.688;2023-02-15T05:34:00;101551.34;;;3.94
51149;BMP280;37210;50.058;8.688;2023-02-15T05:36:28;101595.84;;;4.04
51149;BMP280;37210;50.058;8.688;2023-02-15T05:38:56;101565.50;;;3.84
51149;BMP280;37210;50.058;8.688;2023-02-15T05:41:24;101508.66;;;3.51
51149;BMP280;37210;50.058;8.688;2023-02-15T05:43:51;101644.84;;;4.37
51149;BMP280;37210;50.058;8.688;2023-02-15T05:46:23;101505.34;;;3.71
51149;BMP280;37210;50.058;8.688;2023-02-15T05:48:50;101610.16;;;4.16
51149;BMP280;37210;50.058;8.688;2023-02-15T05:51:18;101640.63;;;4.56
51149;BMP280;37210;50.058;8.688;2023-02-15T05:53:45;101590.72;;;4.06
51149;BMP280;37210;50.058;8.688;2023-02-15T05:56:13;101649.75;;;4.48
51149;BMP280;37210;50.058;8.688;2023-02-15T05:58:41;101637.41;;;4.25
51149;BMP280;37210;50.058;8.688;2023-02-15T06:01:09;101615.00;;;4.08
51149;BMP280;37210;50.058;8.688;2023-02-15T06:03:39;101660.84;;;4.28
51149;BMP280;37210;50.058;8.688;2023-02-15T06:06:08;101604.88;;;3.77
51149;BMP280;37210;50.058;8.688;2023-02-15T06:08:37;101659.25;;;4.13
51149;BMP280;37210;50.058;8.688;2023-02-15T06:11:05;101669.66;;;4.14
51149;BMP280;37210;50.058;8.688;2023-02-15T06:13:34;101669.22;;;4.23
51149;BMP280;37210;50.058;8.688;2023-02-15T06:16:03;101445.78;;;2.99
51149;BMP280;37210;50.058;8.688;2023-02-15T06:18:30;101648.28;;;4.18
51149;BMP280;37210;50.058;8.688;2023-02-15T06:21:00;101503.88;;;3.58
51149;BMP280;37210;50.058;8.688;2023-02-15T06:23:29;101658.75;;;4.56
51149;BMP280;37210;50.058;8.688;2023-02-15T06:25:56;101666.75;;;4.61
51149;BMP280;37210;50.058;8.688;2023-02-15T06:28:24;101662.59;;;4.64
51149;BMP280;37210;50.058;8.688;2023-02-15T06:30:52;101666.53;;;4.39
51149;BMP280;37210;50.058;8.688;2023-02-15T06:33:19;101673.22;;;4.16
51149;BMP280;37210;50.058;8.688;2023-02-15T06:35:47;101680.31;;;4.20
51149;BMP280;37210;50.058;8.688;2023-02-15T06:38:16;101675.25;;;4.58
51149;BMP280;37210;50.058;8.688;2023-02-15T06:40:44;101659.66;;;4.22
51149;BMP280;37210;50.058;8.688;2023-02-15T06:43:11;101682.06;;;4.56
51149;BMP280;37210;50.058;8.688;2023-02-15T06:45:39;101651.78;;;4.55
51149;BMP280;37210;50.058;8.688;2023-02-15T06:48:08;101680.00;;;4.67
51149;BMP280;37210;50.058;8.688;2023-02-15T06:50:37;101684.78;;;4.59
51149;BMP280;37210;50.058;8.688;2023-02-15T06:53:04;101678.25;;;4.67
51149;BMP280;37210;50.058;8.688;2023-02-15T06:55:33;101494.25;;;3.56
51149;BMP280;37210;50.058;8.688;2023-02-15T06:58:01;101694.75;;;4.50
51149;BMP280;37210;50.058;8.688;2023-02-15T07:00:28;101664.22;;;4.45
51149;BMP280;37210;50.058;8.688;2023-02-15T07:02:57;101676.59;;;4.50
51149;BMP280;37210;50.058;8.688;2023-02-15T07:05:26;101698.38;;;4.54
51149;BMP280;37210;50.058;8.688;2023-02-15T07:07:56;101708.59;;;4.33
51149;BMP280;37210;50.058;8.688;2023-02-15T07:10:24;101665.66;;;4.38
51149;BMP280;37210;50.058;8.688;2023-02-15T07:12:53;101711.94;;;4.48
51149;BMP280;37210;50.058;8.688;2023-02-15T07:15:20;101717.78;;;4.44
51149;BMP280;37210;50.058;8.688;2023-02-15T07:17:49;101598.06;;;3.62
51149;BMP280;37210;50.058;8.688;2023-02-15T07:20:20;101707.34;;;4.25
51149;BMP280;37210;50.058;8.688;2023-02-15T07:22:50;101712.13;;;4.18
51149;BMP280;37210;50.058;8.688;2023-02-15T07:25:17;101705.47;;;4.23
51149;BMP280;37210;50.058;8.688;2023-02-15T07:27:45;101653.69;;;3.87
51149;BMP280;37210;50.058;8.688;2023-02-15T07:30:16;101431.06;;;2.63
51149;BMP280;37210;50.058;8.688;2023-02-15T07:32:45;101671.59;;;4.18
51149;BMP280;37210;50.058;8.688;2023-02-15T07:35:30;101699.81;;;4.30
51149;BMP280;37210;50.058;8.688;2023-02-15T07:38:01;101626.38;;;3.59
51149;BMP280;37210;50.058;8.688;2023-02-15T07:40:31;101649.84;;;3.79
51149;BMP280;37210;50.058;8.688;2023-02-15T07:42:58;101671.81;;;4.05
51149;BMP280;37210;50.058;8.688;2023-02-15T07:45:27;101693.72;;;4.29
51149;BMP280;37210;50.058;8.688;2023-02-15T07:47:55;101697.69;;;4.05
51149;BMP280;37210;50.058;8.688;2023-02-15T07:50:23;101678.72;;;4.04
51149;BMP280;37210;50.058;8.688;2023-02-15T07:52:50;101702.13;;;4.07
51149;BMP280;37210;50.058;8.688;2023-02-15T07:55:18;101693.06;;;3.98
51149;BMP280;37210;50.058;8.688;2023-02-15T07:57:47;101399.03;;;2.43
51149;BMP280;37210;50.058;8.688;2023-02-15T08:00:17;101693.34;;;4.04
51149;BMP280;37210;50.058;8.688;2023-02-15T08:02:52;101655.94;;;3.64
51149;BMP280;37210;50.058;8.688;2023-02-15T08:05:35;101647.38;;;3.65
51149;BMP280;37210;50.058;8.688;2023-02-15T08:08:03;101669.59;;;3.61
51149;BMP280;37210;50.058;8.688;2023-02-15T08:10:31;101691.13;;;3.94
51149;BMP280;37210;50.058;8.688;2023-02-15T08:13:18;101692.81;;;3.93
51149;BMP280;37210;50.058;8.688;2023-02-15T08:15:48;101696.78;;;3.87
51149;BMP280;37210;50.058;8.688;2023-02-15T08:18:17;101673.78;;;3.75
51149;BMP280;37210;50.058;8.688;2023-02-15T08:20:49;101694.50;;;3.93
51149;BMP280;37210;50.058;8.688;2023-02-15T08:23:26;101693.53;;;3.91
51149;BMP280;37210;50.058;8.688;2023-02-15T08:25:53;101688.22;;;4.05
51149;BMP280;37210;50.058;8.688;2023-02-15T08:28:21;101677.06;;;3.89
51149;BMP280;37210;50.058;8.688;2023-02-15T08:30:48;101684.09;;;3.91
51149;BMP280;37210;50.058;8.688;2023-02-15T08:33:17;101654.84;;;3.76
51149;BMP280;37210;50.058;8.688;2023-02-15T08:35:44;101681.75;;;3.80
51149;BMP280;37210;50.058;8.688;2023-02-15T08:38:13;101688.78;;;3.65
51149;BMP280;37210;50.058;8.688;2023-02-15T08:40:41;101676.69;;;3.81
51149;BMP280;37210;50.058;8.688;2023-02-15T08:43:09;101674.41;;;3.87
51149;BMP280;37210;50.058;8.688;2023-02-15T08:45:36;101623.16;;;3.47
51149;BMP280;37210;50.058;8.688;2023-02-15T08:48:04;101675.78;;;3.98
51149;BMP280;37210;50.058;8.688;2023-02-15T08:50:33;101647.50;;;3.68
51149;BMP280;37210;50.058;8.688;2023-02-15T08:53:01;101669.94;;;3.85
51149;BMP280;37210;50.058;8.688;2023-02-15T08:55:28;101663.75;;;3.99
51149;BMP280;37210;50.058;8.688;2023-02-15T08:57:56;101654.91;;;3.78
51149;BMP280;37210;50.058;8.688;2023-02-15T09:00:24;101656.84;;;3.82
51149;BMP280;37210;50.058;8.688;2023-02-15T09:02:52;101604.69;;;3.39
51149;BMP280;37210;50.058;8.688;2023-02-15T09:05:19;101662.84;;;3.98
51149;BMP280;37210;50.058;8.688;2023-02-15T09:07:49;101600.22;;;3.70
51149;BMP280;37210;50.058;8.688;2023-02-15T09:10:16;101621.81;;;3.71
51149;BMP280;37210;50.058;8.688;2023-02-15T09:12:44;101657.06;;;3.86
51149;BMP280;37210;50.058;8.688;2023-02-15T09:15:11;101480.56;;;2.72
51149;BMP280;37210;50.058;8.688;2023-02-15T09:17:39;101613.56;;;3.62
51149;BMP280;37210;50.058;8.688;2023-02-15T09:20:08;101651.69;;;4.17
51149;BMP280;37210;50.058;8.688;2023-02-15T09:22:37;101626.09;;;3.88
51149;BMP280;37210;50.058;8.688;2023-02-15T09:25:06;101639.06;;;3.88
51149;BMP280;37210;50.058;8.688;2023-02-15T09:27:34;101643.84;;;3.98
51149;BMP280;37210;50.058;8.688;2023-02-15T09:30:02;101632.94;;;3.70
51149;BMP280;37210;50.058;8.688;2023-02-15T09:32:30;101633.91;;;3.72
51149;BMP280;37210;50.058;8.688;2023-02-15T09:34:57;101639.06;;;3.88
51149;BMP280;37210;50.058;8.688;2023-02-15T09:37:25;101624.22;;;4.03
51149;BMP280;37210;50.058;8.688;2023-02-15T09:39:52;101632.84;;;4.02
51149;BMP280;37210;50.058;8.688;2023-02-15T09:42:39;101611.50;;;4.07
51149;BMP280;37210;50.058;8.688;2023-02-15T09:45:27;101630.25;;;4.02
51149;BMP280;37210;50.058;8.688;2023-02-15T09:48:30;101602.59;;;3.83
51149;BMP280;37210;50.058;8.688;2023-02-15T09:51:27;101627.06;;;4.25
51149;BMP280;37210;50.058;8.688;2023-02-15T09:54:32;101611.06;;;3.98
51149;BMP280;37210;50.058;8.688;2023-02-15T09:57:17;101636.50;;;4.25
51149;BMP280;37210;50.058;8.688;2023-02-15T10:00:01;101633.63;;;4.01
51149;BMP280;37210;50.058;8.688;2023-02-15T10:02:57;101640.13;;;4.28
51149;BMP280;37210;50.058;8.688;2023-02-15T10:05:47;101646.66;;;4.20
51149;BMP280;37210;50.058;8.688;2023-02-15T10:08:43;101645.53;;;4.33
51149;BMP280;37210;50.058;8.688;2023-02-15T10:11:26;101657.16;;;4.23
51149;BMP280;37210;50.058;8.688;2023-02-15T10:14:18;101643.69;;;4.30
51149;BMP280;37210;50.058;8.688;2023-02-15T10:17:12;101657.22;;;4.25
51149;BMP280;37210;50.058;8.688;2023-02-15T10:19:59;101657.59;;;4.32
51149;BMP280;37210;50.058;8.688;2023-02-15T10:22:48;101653.63;;;4.21
51149;BMP280;37210;50.058;8.688;2023-02-15T10:25:35;101659.44;;;4.35
51149;BMP280;37210;50.058;8.688;2023-02-15T10:28:16;101658.81;;;4.40
51149;BMP280;37210;50.058;8.688;2023-02-15T10:30:47;101647.31;;;4.34
51149;BMP280;37210;50.058;8.688;2023-02-15T10:33:32;101652.00;;;4.42
51149;BMP280;37210;50.058;8.688;2023-02-15T10:36:11;101645.81;;;4.39
51149;BMP280;37210;50.058;8.688;2023-02-15T10:38:52;101633.53;;;4.52
51149;BMP280;37210;50.058;8.688;2023-02-15T10:41:36;101613.31;;;4.45
51149;BMP280;37210;50.058;8.688;2023-02-15T10:44:27;101614.09;;;4.25
51149;BMP280;37210;50.058;8.688;2023-02-15T10:47:30;101641.19;;;4.14
51149;BMP280;37210;50.058;8.688;2023-02-15T10:50:21;101644.16;;;4.04
51149;BMP280;37210;50.058;8.688;2023-02-15T10:53:13;101611.13;;;4.18
51149;BMP280;37210;50.058;8.688;2023-02-15T10:56:08;101632.28;;;4.44
51149;BMP280;37210;50.058;8.688;2023-02-15T10:58:59;101554.69;;;4.11
51149;BMP280;37210;50.058;8.688;2023-02-15T11:01:41;101632.16;;;4.60
51149;BMP280;37210;50.058;8.688;2023-02-15T11:07:33;101625.75;;;4.52
51149;BMP280;37210;50.058;8.688;2023-02-15T11:10:22;101624.59;;;4.65
51149;BMP280;37210;50.058;8.688;2023-02-15T11:13:00;101622.06;;;4.66
51149;BMP280;37210;50.058;8.688;2023-02-15T11:15:36;101627.09;;;4.63
51149;BMP280;37210;50.058;8.688;2023-02-15T11:18:11;101616.34;;;4.73
51149;BMP280;37210;50.058;8.688;2023-02-15T11:20:50;101613.47;;;4.86
51149;BMP280;37210;50.058;8.688;2023-02-15T11:23:25;101614.56;;;4.92
51149;BMP280;37210;50.058;8.688;2023-02-15T11:25:59;101613.41;;;4.85
51149;BMP280;37210;50.058;8.688;2023-02-15T11:28:31;101602.28;;;4.88
51149;BMP280;37210;50.058;8.688;2023-02-15T11:31:13;101606.53;;;4.66
51149;BMP280;37210;50.058;8.688;2023-02-15T11:33:48;101606.16;;;4.78
51149;BMP280;37210;50.058;8.688;2023-02-15T11:36:22;101601.06;;;4.79
51149;BMP280;37210;50.058;8.688;2023-02-15T11:38:59;101606.06;;;4.94
51149;BMP280;37210;50.058;8.688;2023-02-15T11:41:39;101595.25;;;5.04
51149;BMP280;37210;50.058;8.688;2023-02-15T11:44:15;101593.84;;;4.92
51149;BMP280;37210;50.058;8.688;2023-02-15T11:46:47;101595.78;;;4.97
51149;BMP280;37210;50.058;8.688;2023-02-15T11:49:29;101594.56;;;4.89
51149;BMP280;37210;50.058;8.688;2023-02-15T11:52:00;101590.56;;;4.96
51149;BMP280;37210;50.058;8.688;2023-02-15T11:54:33;101577.03;;;5.03
51149;BMP280;37210;50.058;8.688;2023-02-15T11:57:12;101573.63;;;5.04
51149;BMP280;37210;50.058;8.688;2023-02-15T11:59:46;101576.13;;;5.21
51149;BMP280;37210;50.058;8.688;2023-02-15T12:02:22;101578.50;;;5.17
51149;BMP280;37210;50.058;8.688;2023-02-15T12:04:58;101578.78;;;5.23
51149;BMP280;37210;50.058;8.688;2023-02-15T12:07:32;101567.72;;;5.27
51149;BMP280;37210;50.058;8.688;2023-02-15T12:10:16;101545.03;;;5.02
51149;BMP280;37210;50.058;8.688;2023-02-15T12:13:09;101569.84;;;5.16
51149;BMP280;37210;50.058;8.688;2023-02-15T12:15:41;101559.47;;;5.16
51149;BMP280;37210;50.058;8.688;2023-02-15T12:18:21;101531.00;;;5.18
51149;BMP280;37210;50.058;8.688;2023-02-15T12:21:15;101552.63;;;5.18
51149;BMP280;37210;50.058;8.688;2023-02-15T12:23:52;101546.31;;;4.93
51149;BMP280;37210;50.058;8.688;2023-02-15T12:26:28;101522.88;;;4.90
51149;BMP280;37210;50.058;8.688;2023-02-15T12:29:15;101547.75;;;5.26
51149;BMP280;37210;50.058;8.688;2023-02-15T12:31:46;101506.34;;;5.07
51149;BMP280;37210;50.058;8.688;2023-02-15T12:34:21;101550.53;;;5.30
51149;BMP280;37210;50.058;8.688;2023-02-15T12:36:54;101528.22;;;5.34
51149;BMP280;37210;50.058;8.688;2023-02-15T12:39:26;101544.91;;;5.40
51149;BMP280;37210;50.058;8.688;2023-02-15T12:42:00;101547.94;;;5.30
51149;BMP280;37210;50.058;8.688;2023-02-15T12:44:31;101536.38;;;5.22
51149;BMP280;37210;50.058;8.688;2023-02-15T12:47:04;101509.84;;;4.88
51149;BMP280;37210;50.058;8.688;2023-02-15T12:49:35;101472.22;;;4.77
51149;BMP280;37210;50.058;8.688;2023-02-15T12:52:24;101520.56;;;5.16
51149;BMP280;37210;50.058;8.688;2023-02-15T12:54:52;101508.84;;;5.46
51149;BMP280;37210;50.058;8.688;2023-02-15T12:57:27;101515.56;;;5.41
51149;BMP280;37210;50.058;8.688;2023-02-15T12:59:57;101517.44;;;5.66
51149;BMP280;37210;50.058;8.688;2023-02-15T13:02:43;101492.41;;;5.46
51149;BMP280;37210;50.058;8.688;2023-02-15T13:05:19;101513.19;;;5.68
51149;BMP280;37210;50.058;8.688;2023-02-15T13:07:54;101509.97;;;5.53
51149;BMP280;37210;50.058;8.688;2023-02-15T13:10:27;101499.22;;;5.64
51149;BMP280;37210;50.058;8.688;2023-02-15T13:12:59;101469.66;;;5.61
51149;BMP280;37210;50.058;8.688;2023-02-15T13:15:34;101449.09;;;5.45
51149;BMP280;37210;50.058;8.688;2023-02-15T13:18:05;101478.81;;;5.53
51149;BMP280;37210;50.058;8.688;2023-02-15T13:20:40;101478.81;;;5.31
51149;BMP280;37210;50.058;8.688;2023-02-15T13:23:22;101467.06;;;5.40
51149;BMP280;37210;50.058;8.688;2023-02-15T13:25:56;101481.25;;;5.28
51149;BMP280;37210;50.058;8.688;2023-02-15T13:28:41;101459.59;;;5.48
51149;BMP280;37210;50.058;8.688;2023-02-15T13:31:19;101483.78;;;5.47
51149;BMP280;37210;50.058;8.688;2023-02-15T13:33:52;101474.38;;;5.71
51149;BMP280;37210;50.058;8.688;2023-02-15T13:36:29;101432.66;;;5.24
51149;BMP280;37210;50.058;8.688;2023-02-15T13:39:17;101478.72;;;5.50
51149;BMP280;37210;50.058;8.688;2023-02-15T13:41:59;101466.44;;;5.46
51149;BMP280;37210;50.058;8.688;2023-02-15T13:44:54;101465.56;;;5.45
51149;BMP280;37210;50.058;8.688;2023-02-15T13:47:43;101459.81;;;5.32
51149;BMP280;37210;50.058;8.688;2023-02-15T13:50:33;101430.50;;;4.92
51149;BMP280;37210;50.058;8.688;2023-02-15T13:53:35;101433.53;;;5.45
51149;BMP280;37210;50.058;8.688;2023-02-15T13:56:17;101460.38;;;5.67
51149;BMP280;37210;50.058;8.688;2023-02-15T13:59:05;101463.28;;;5.75
51149;BMP280;37210;50.058;8.688;2023-02-15T14:02:20;101464.81;;;5.70
51149;BMP280;37210;50.058;8.688;2023-02-15T14:05:25;101454.75;;;5.57
51149;BMP280;37210;50.058;8.688;2023-02-15T14:08:11;101453.72;;;5.52
51149;BMP280;37210;50.058;8.688;2023-02-15T14:10:56;101429.97;;;5.21
51149;BMP280;37210;50.058;8.688;2023-02-15T14:16:55;101432.16;;;5.32
51149;BMP280;37210;50.058;8.688;2023-02-15T14:19:35;101429.41;;;5.50
51149;BMP280;37210;50.058;8.688;2023-02-15T14:22:15;101428.47;;;5.70
51149;BMP280;37210;50.058;8.688;2023-02-15T14:24:59;101396.56;;;5.50
51149;BMP280;37210;50.058;8.688;2023-02-15T14:27:45;101427.75;;;5.74
51149;BMP280;37210;50.058;8.688;2023-02-15T14:30:22;101427.16;;;5.81
51149;BMP280;37210;50.058;8.688;2023-02-15T14:33:29;101404.34;;;5.08
51149;BMP280;37210;50.058;8.688;2023-02-15T14:36:05;101426.00;;;5.73
51149;BMP280;37210;50.058;8.688;2023-02-15T14:38:53;101425.06;;;5.71
51149;BMP280;37210;50.058;8.688;2023-02-15T14:41:44;101420.16;;;5.56
51149;BMP280;37210;50.058;8.688;2023-02-15T14:44:22;101414.44;;;5.65
51149;BMP280;37210;50.058;8.688;2023-02-15T14:47:05;101421.84;;;5.78
51149;BMP280;37210;50.058;8.688;2023-02-15T14:49:43;101422.44;;;5.71
51149;BMP280;37210;50.058;8.688;2023-02-15T14:52:12;101414.31;;;5.84
51149;BMP280;37210;50.058;8.688;2023-02-15T14:54:59;101411.00;;;5.66
51149;BMP280;37210;50.058;8.688;2023-02-15T14:57:28;101414.66;;;5.71
51149;BMP280;37210;50.058;8.688;2023-02-15T14:59:59;101409.94;;;5.83
51149;BMP280;37210;50.058;8.688;2023-02-15T15:02:45;101394.47;;;5.64
51149;BMP280;37210;50.058;8.688;2023-02-15T15:05:24;101394.00;;;5.74